Terminal Aerodrome Forecast
Issued by NWS

Home | Current Version | Previous Version | Text Only | Print | Product List | Glossary On
Versions: 1 2 3 4 5 6 7 8 9 10 11 12 13
000
FTUS46 KOTX 082338
TAFCOE
TAF
KCOE 082338Z 0900/0924 03018G24KT P6SM BKN150 OVC200
     FM090300 03018G24KT P6SM OVC100
     FM090600 03014KT 3SM -SN OVC025
     FM091200 04014KT 2SM -SN OVC009
     FM091500 03012KT 6SM -SHSN SCT012 OVC025
     FM092000 04008KT P6SM BKN030 OVC050=

USA.gov is the U.S. government's official web portal to all federal, state and local government web resources and services.